Airfield :
LOGIN :

Register | Disclaimer

   EN    FR    IT 

 










Legend :    VFR   Marginal VFR   IFR   Intensive IFR   Very Intensive IFR
Visi :
Ceiling :
>= 8 km
>= 3000ft
5 to 8 km
1000 to 3000 ft
1500m to 5 km
500 to 1000 ft
800 to 1500m
200 to 500 ft
< 800m
< 200 ft
Symbols :   Thunderstorms  Fog  Heavy snow  Heavy precipitations  Wind > 20 kt
SIGMETs :     Misc.  Thunderstorms  Icing  Turbulence  Mountain Waves  Volcanic Ashes







- Airport Elevation : 194 ft


EBCV - Chièvres

CURRENT METAR :
  • 250955Z AUTO 19006KT 9999 NCD 29/21 Q1016 BLU

EXPIRED METARs :
  • 250925Z AUTO 19005KT 9999 NCD 29/21 Q1015 BLU
  • 250855Z AUTO 19006KT 9999 NCD 28/20 Q1015 BLU
  • 250825Z AUTO 20007KT 9999 NCD 28/20 Q1015 BLU
  • 250755Z AUTO 18007KT 9999 NCD 27/20 Q1015 BLU
  • 250725Z AUTO 17007KT 9999 NCD 26/19 Q1015 BLU

TAF TAF EBCV
Valid from the 25 at 10:00 until the 25 at 19:00 UTC


250841Z 2510/2519 20008KT 9999 FEW180
BECMG 2516/2518 26007KT BY EBWM
No reported NOTAMs for that airfield.



MET'MAP, your aeronautical weather chart ! - Copyright ORBIFLY December 2007 - Disclaimer

ORBIFLY MET'MAP TEAM :

Programming & Development : Alexandra Zaïnal
Concept & Development : Baudouin d'Aumeries
Co-Development & Prog : Marc-Olivier Méhu
Technical & hardware support : Manuel Goepfert

Contact : metmap@orbifly.com




SOURCES & CREDITS :

   NOAA